sensor_id;sensor_type;location;lat;lon;timestamp;pressure;altitude;pressure_sealevel;temperature;humidity
38227;BME280;24026;49.446;8.576;2023-07-09T00:01:40;100754.94;;;27.87;36.85
38227;BME280;24026;49.446;8.576;2023-07-09T00:04:00;100749.81;;;27.86;36.87
38227;BME280;24026;49.446;8.576;2023-07-09T00:06:21;100759.94;;;27.85;36.57
38227;BME280;24026;49.446;8.576;2023-07-09T00:08:44;100757.56;;;27.84;36.57
38227;BME280;24026;49.446;8.576;2023-07-09T00:11:06;100755.19;;;27.82;36.70
38227;BME280;24026;49.446;8.576;2023-07-09T00:13:27;100756.31;;;27.81;37.12
38227;BME280;24026;49.446;8.576;2023-07-09T00:15:48;100766.47;;;27.81;36.61
38227;BME280;24026;49.446;8.576;2023-07-09T00:18:09;100762.13;;;27.80;37.15
38227;BME280;24026;49.446;8.576;2023-07-09T00:20:30;100765.22;;;27.78;36.86
38227;BME280;24026;49.446;8.576;2023-07-09T00:22:50;100756.56;;;27.76;36.81
38227;BME280;24026;49.446;8.576;2023-07-09T00:25:14;100760.47;;;27.75;36.75
38227;BME280;24026;49.446;8.576;2023-07-09T00:27:36;100764.34;;;27.74;37.09
38227;BME280;24026;49.446;8.576;2023-07-09T00:29:58;100762.72;;;27.73;36.92
38227;BME280;24026;49.446;8.576;2023-07-09T00:32:19;100770.13;;;27.72;37.42
38227;BME280;24026;49.446;8.576;2023-07-09T00:34:44;100767.75;;;27.71;37.31
38227;BME280;24026;49.446;8.576;2023-07-09T00:37:10;100776.28;;;27.69;37.54
38227;BME280;24026;49.446;8.576;2023-07-09T00:39:32;100770.38;;;27.67;37.51
38227;BME280;24026;49.446;8.576;2023-07-09T00:41:52;100769.59;;;27.67;36.95
38227;BME280;24026;49.446;8.576;2023-07-09T00:44:29;100776.53;;;27.64;37.31
38227;BME280;24026;49.446;8.576;2023-07-09T00:49:10;100776.53;;;27.64;37.39
38227;BME280;24026;49.446;8.576;2023-07-09T00:51:40;100774.16;;;27.63;37.82
38227;BME280;24026;49.446;8.576;2023-07-09T00:54:10;100771.78;;;27.61;37.65
38227;BME280;24026;49.446;8.576;2023-07-09T00:56:38;100775.66;;;27.60;37.32
38227;BME280;24026;49.446;8.576;2023-07-09T00:59:03;100767.81;;;27.59;37.53
38227;BME280;24026;49.446;8.576;2023-07-09T01:01:27;100771.69;;;27.58;37.88
38227;BME280;24026;49.446;8.576;2023-07-09T01:03:51;100780.66;;;27.58;37.92
38227;BME280;24026;49.446;8.576;2023-07-09T01:06:12;100778.66;;;27.55;37.94
38227;BME280;24026;49.446;8.576;2023-07-09T01:08:37;100778.66;;;27.55;37.96
38227;BME280;24026;49.446;8.576;2023-07-09T01:11:01;100781.72;;;27.53;37.82
38227;BME280;24026;49.446;8.576;2023-07-09T01:13:22;100785.56;;;27.52;37.79
38227;BME280;24026;49.446;8.576;2023-07-09T01:15:42;100781.25;;;27.51;38.24
38227;BME280;24026;49.446;8.576;2023-07-09T01:18:04;100782.41;;;27.50;37.82
38227;BME280;24026;49.446;8.576;2023-07-09T01:20:26;100793.31;;;27.50;37.83
38227;BME280;24026;49.446;8.576;2023-07-09T01:22:51;100791.72;;;27.49;37.97
38227;BME280;24026;49.446;8.576;2023-07-09T01:25:15;100802.97;;;27.48;38.17
38227;BME280;24026;49.446;8.576;2023-07-09T01:27:37;100793.22;;;27.47;37.98
38227;BME280;24026;49.446;8.576;2023-07-09T01:29:59;100787.78;;;27.47;38.38
38227;BME280;24026;49.446;8.576;2023-07-09T01:32:21;100790.84;;;27.45;38.20
38227;BME280;24026;49.446;8.576;2023-07-09T01:34:41;100783.44;;;27.46;38.46
38227;BME280;24026;49.446;8.576;2023-07-09T01:37:02;100781.06;;;27.44;38.41
38227;BME280;24026;49.446;8.576;2023-07-09T01:39:26;100785.72;;;27.44;38.14
38227;BME280;24026;49.446;8.576;2023-07-09T01:41:48;100787.66;;;27.43;38.50
38227;BME280;24026;49.446;8.576;2023-07-09T01:44:09;100784.47;;;27.41;38.29
38227;BME280;24026;49.446;8.576;2023-07-09T01:46:29;100773.13;;;27.39;38.22
38227;BME280;24026;49.446;8.576;2023-07-09T01:48:50;100782.09;;;27.40;38.52
38227;BME280;24026;49.446;8.576;2023-07-09T01:51:15;100780.53;;;27.39;38.45
38227;BME280;24026;49.446;8.576;2023-07-09T01:53:37;100783.59;;;27.37;38.72
38227;BME280;24026;49.446;8.576;2023-07-09T01:55:59;100775.75;;;27.35;38.81
38227;BME280;24026;49.446;8.576;2023-07-09T01:58:20;100780.41;;;27.35;38.94
38227;BME280;24026;49.446;8.576;2023-07-09T02:00:46;100785.88;;;27.35;38.67
38227;BME280;24026;49.446;8.576;2023-07-09T02:03:08;100783.50;;;27.33;38.69
38227;BME280;24026;49.446;8.576;2023-07-09T02:05:31;100783.50;;;27.33;38.73
38227;BME280;24026;49.446;8.576;2023-07-09T02:07:51;100783.84;;;27.32;38.49
38227;BME280;24026;49.446;8.576;2023-07-09T02:10:13;100790.41;;;27.31;38.54
38227;BME280;24026;49.446;8.576;2023-07-09T02:12:34;100791.59;;;27.30;38.99
38227;BME280;24026;49.446;8.576;2023-07-09T02:14:54;100795.44;;;27.29;38.66
38227;BME280;24026;49.446;8.576;2023-07-09T02:17:15;100788.84;;;27.30;38.78
38227;BME280;24026;49.446;8.576;2023-07-09T02:19:36;100787.56;;;27.27;38.67
38227;BME280;24026;49.446;8.576;2023-07-09T02:21:57;100791.88;;;27.28;38.57
38227;BME280;24026;49.446;8.576;2023-07-09T02:24:17;100789.50;;;27.27;38.90
38227;BME280;24026;49.446;8.576;2023-07-09T02:26:38;100785.19;;;27.26;39.09
38227;BME280;24026;49.446;8.576;2023-07-09T02:28:58;100783.56;;;27.25;38.68
38227;BME280;24026;49.446;8.576;2023-07-09T02:31:19;100780.84;;;27.25;39.02
38227;BME280;24026;49.446;8.576;2023-07-09T02:33:39;100783.56;;;27.25;39.12
38227;BME280;24026;49.446;8.576;2023-07-09T02:36:00;100782.34;;;27.22;39.28
38227;BME280;24026;49.446;8.576;2023-07-09T02:38:20;100780.75;;;27.21;38.83
38227;BME280;24026;49.446;8.576;2023-07-09T02:40:40;100779.97;;;27.21;39.12
38227;BME280;24026;49.446;8.576;2023-07-09T02:43:01;100780.31;;;27.19;39.08
38227;BME280;24026;49.446;8.576;2023-07-09T02:45:21;100780.31;;;27.19;38.98
38227;BME280;24026;49.446;8.576;2023-07-09T02:47:42;100777.94;;;27.17;38.96
38227;BME280;24026;49.446;8.576;2023-07-09T02:50:02;100775.19;;;27.17;39.12
38227;BME280;24026;49.446;8.576;2023-07-09T02:52:23;100781.81;;;27.16;39.21
38227;BME280;24026;49.446;8.576;2023-07-09T02:54:43;100780.22;;;27.15;39.07
38227;BME280;24026;49.446;8.576;2023-07-09T02:57:04;100787.59;;;27.15;39.33
38227;BME280;24026;49.446;8.576;2023-07-09T02:59:25;100781.34;;;27.14;39.05
38227;BME280;24026;49.446;8.576;2023-07-09T03:01:47;100790.69;;;27.13;39.32
38227;BME280;24026;49.446;8.576;2023-07-09T03:04:07;100787.47;;;27.11;39.35
38227;BME280;24026;49.446;8.576;2023-07-09T03:06:29;100793.75;;;27.12;39.08
38227;BME280;24026;49.446;8.576;2023-07-09T03:08:50;100794.88;;;27.11;39.32
38227;BME280;24026;49.446;8.576;2023-07-09T03:11:12;100799.53;;;27.10;39.47
38227;BME280;24026;49.446;8.576;2023-07-09T03:13:33;100799.09;;;27.08;39.32
38227;BME280;24026;49.446;8.576;2023-07-09T03:15:57;100806.47;;;27.08;39.44
38227;BME280;24026;49.446;8.576;2023-07-09T03:18:18;100802.50;;;27.05;39.57
38227;BME280;24026;49.446;8.576;2023-07-09T03:20:38;100804.41;;;27.05;39.61
38227;BME280;24026;49.446;8.576;2023-07-09T03:22:59;100811.81;;;27.04;39.49
38227;BME280;24026;49.446;8.576;2023-07-09T03:25:19;100808.31;;;27.04;39.52
38227;BME280;24026;49.446;8.576;2023-07-09T03:27:40;100803.97;;;27.03;39.79
38227;BME280;24026;49.446;8.576;2023-07-09T03:30:00;100807.03;;;27.01;39.72
38227;BME280;24026;49.446;8.576;2023-07-09T03:32:20;100812.50;;;27.01;39.49
38227;BME280;24026;49.446;8.576;2023-07-09T03:34:41;100816.38;;;27.00;39.73
38227;BME280;24026;49.446;8.576;2023-07-09T03:37:01;100821.34;;;26.98;39.84
38227;BME280;24026;49.446;8.576;2023-07-09T03:39:22;100826.81;;;26.98;39.77
38227;BME280;24026;49.446;8.576;2023-07-09T03:41:42;100828.31;;;26.95;39.94
38227;BME280;24026;49.446;8.576;2023-07-09T03:44:02;100828.31;;;26.95;39.55
38227;BME280;24026;49.446;8.576;2023-07-09T03:46:23;100822.06;;;26.95;40.15
38227;BME280;24026;49.446;8.576;2023-07-09T03:48:43;100824.31;;;26.93;39.86
38227;BME280;24026;49.446;8.576;2023-07-09T03:51:04;100832.50;;;26.93;40.23
38227;BME280;24026;49.446;8.576;2023-07-09T03:53:24;100832.50;;;26.93;40.20
38227;BME280;24026;49.446;8.576;2023-07-09T03:55:46;100837.50;;;26.91;39.75
38227;BME280;24026;49.446;8.576;2023-07-09T03:58:07;100835.56;;;26.91;39.75
38227;BME280;24026;49.446;8.576;2023-07-09T04:00:28;100839.78;;;26.89;40.06
38227;BME280;24026;49.446;8.576;2023-07-09T04:02:48;100835.47;;;26.88;39.98
38227;BME280;24026;49.446;8.576;2023-07-09T04:05:09;100838.19;;;26.88;39.88
38227;BME280;24026;49.446;8.576;2023-07-09T04:07:30;100833.06;;;26.86;40.19
38227;BME280;24026;49.446;8.576;2023-07-09T04:09:50;100833.88;;;26.87;40.28
38227;BME280;24026;49.446;8.576;2023-07-09T04:12:11;100827.63;;;26.86;40.24
38227;BME280;24026;49.446;8.576;2023-07-09T04:14:32;100835.34;;;26.84;40.20
38227;BME280;24026;49.446;8.576;2023-07-09T04:16:52;100832.63;;;26.84;40.05
38227;BME280;24026;49.446;8.576;2023-07-09T04:19:13;100841.94;;;26.83;40.21
38227;BME280;24026;49.446;8.576;2023-07-09T04:21:33;100829.44;;;26.82;40.28
38227;BME280;24026;49.446;8.576;2023-07-09T04:23:53;100843.06;;;26.82;40.44
38227;BME280;24026;49.446;8.576;2023-07-09T04:26:15;100852.03;;;26.83;40.08
38227;BME280;24026;49.446;8.576;2023-07-09T04:28:35;100837.97;;;26.80;40.48
38227;BME280;24026;49.446;8.576;2023-07-09T04:30:56;100844.19;;;26.81;40.48
38227;BME280;24026;49.446;8.576;2023-07-09T04:33:18;100848.09;;;26.80;40.25
38227;BME280;24026;49.446;8.576;2023-07-09T04:35:38;100850.81;;;26.80;40.57
38227;BME280;24026;49.446;8.576;2023-07-09T04:37:59;100847.28;;;26.79;40.33
38227;BME280;24026;49.446;8.576;2023-07-09T04:40:20;100852.72;;;26.79;40.15
38227;BME280;24026;49.446;8.576;2023-07-09T04:42:40;100845.34;;;26.80;40.68
38227;BME280;24026;49.446;8.576;2023-07-09T04:45:01;100847.28;;;26.79;40.46
38227;BME280;24026;49.446;8.576;2023-07-09T04:47:22;100841.81;;;26.79;40.54
38227;BME280;24026;49.446;8.576;2023-07-09T04:49:42;100847.28;;;26.79;40.68
38227;BME280;24026;49.446;8.576;2023-07-09T04:52:03;100855.44;;;26.79;40.83
38227;BME280;24026;49.446;8.576;2023-07-09T04:54:23;100853.53;;;26.80;40.19
38227;BME280;24026;49.446;8.576;2023-07-09T04:56:44;100857.03;;;26.80;40.41
38227;BME280;24026;49.446;8.576;2023-07-09T04:59:05;100862.50;;;26.80;40.43
38227;BME280;24026;49.446;8.576;2023-07-09T05:01:25;100858.16;;;26.79;40.36
38227;BME280;24026;49.446;8.576;2023-07-09T05:03:45;100865.22;;;26.80;40.21
38227;BME280;24026;49.446;8.576;2023-07-09T05:06:06;100860.56;;;26.81;40.78
38227;BME280;24026;49.446;8.576;2023-07-09T05:08:26;100866.81;;;26.82;40.43
38227;BME280;24026;49.446;8.576;2023-07-09T05:10:51;100865.69;;;26.83;40.65
38227;BME280;24026;49.446;8.576;2023-07-09T05:13:12;100867.63;;;26.82;40.82
38227;BME280;24026;49.446;8.576;2023-07-09T05:15:32;100865.69;;;26.83;40.49
38227;BME280;24026;49.446;8.576;2023-07-09T05:17:53;100857.50;;;26.83;40.68
38227;BME280;24026;49.446;8.576;2023-07-09T05:20:14;100859.09;;;26.84;40.37
38227;BME280;24026;49.446;8.576;2023-07-09T05:22:35;100863.41;;;26.85;40.54
38227;BME280;24026;49.446;8.576;2023-07-09T05:24:55;100857.59;;;26.86;40.43
38227;BME280;24026;49.446;8.576;2023-07-09T05:27:16;100861.94;;;26.87;40.40
38227;BME280;24026;49.446;8.576;2023-07-09T05:29:36;100865.44;;;26.88;40.26
38227;BME280;24026;49.446;8.576;2023-07-09T05:31:56;100859.66;;;26.89;40.44
38227;BME280;24026;49.446;8.576;2023-07-09T05:34:17;100867.03;;;26.89;40.55
38227;BME280;24026;49.446;8.576;2023-07-09T05:36:37;100864.78;;;26.91;40.69
38227;BME280;24026;49.446;8.576;2023-07-09T05:38:57;100860.09;;;26.91;40.45
38227;BME280;24026;49.446;8.576;2023-07-09T05:41:18;100862.50;;;26.93;40.67
38227;BME280;24026;49.446;8.576;2023-07-09T05:43:38;100864.09;;;26.94;40.38
38227;BME280;24026;49.446;8.576;2023-07-09T05:46:01;100869.22;;;26.95;40.40
38227;BME280;24026;49.446;8.576;2023-07-09T05:48:23;100859.91;;;26.96;40.33
38227;BME280;24026;49.446;8.576;2023-07-09T05:50:43;100859.91;;;26.96;40.52
38227;BME280;24026;49.446;8.576;2023-07-09T05:53:03;100865.00;;;26.98;40.53
38227;BME280;24026;49.446;8.576;2023-07-09T05:55:24;100868.19;;;27.00;40.79
38227;BME280;24026;49.446;8.576;2023-07-09T05:57:44;100874.09;;;27.02;40.51
38227;BME280;24026;49.446;8.576;2023-07-09T06:00:05;100869.09;;;27.04;40.49
38227;BME280;24026;49.446;8.576;2023-07-09T06:02:27;100872.25;;;27.06;40.77
38227;BME280;24026;49.446;8.576;2023-07-09T06:04:47;100879.31;;;27.07;40.69
38227;BME280;24026;49.446;8.576;2023-07-09T06:07:12;100879.41;;;27.11;40.78
38227;BME280;24026;49.446;8.576;2023-07-09T06:09:34;100881.81;;;27.12;40.50
38227;BME280;24026;49.446;8.576;2023-07-09T06:11:54;100876.78;;;27.14;40.63
38227;BME280;24026;49.446;8.576;2023-07-09T06:14:15;100884.66;;;27.16;40.32
38227;BME280;24026;49.446;8.576;2023-07-09T06:16:37;100882.34;;;27.18;40.26
38227;BME280;24026;49.446;8.576;2023-07-09T06:18:57;100882.84;;;27.20;40.28
38227;BME280;24026;49.446;8.576;2023-07-09T06:21:18;100881.34;;;27.23;40.42
38227;BME280;24026;49.446;8.576;2023-07-09T06:23:38;100877.47;;;27.24;40.48
38227;BME280;24026;49.446;8.576;2023-07-09T06:25:59;100875.19;;;27.26;40.71
38227;BME280;24026;49.446;8.576;2023-07-09T06:28:21;100880.00;;;27.29;40.57
38227;BME280;24026;49.446;8.576;2023-07-09T06:30:43;100883.97;;;27.31;40.41
38227;BME280;24026;49.446;8.576;2023-07-09T06:33:03;100878.16;;;27.33;40.21
38227;BME280;24026;49.446;8.576;2023-07-09T06:35:24;100878.66;;;27.35;40.55
38227;BME280;24026;49.446;8.576;2023-07-09T06:37:44;100874.75;;;27.36;40.29
38227;BME280;24026;49.446;8.576;2023-07-09T06:40:05;100879.53;;;27.39;40.47
38227;BME280;24026;49.446;8.576;2023-07-09T06:42:28;100883.03;;;27.40;40.30
38227;BME280;24026;49.446;8.576;2023-07-09T06:44:49;100881.56;;;27.42;40.02
38227;BME280;24026;49.446;8.576;2023-07-09T06:47:09;100874.63;;;27.45;40.43
38227;BME280;24026;49.446;8.576;2023-07-09T06:49:30;100885.19;;;27.46;40.08
38227;BME280;24026;49.446;8.576;2023-07-09T06:51:50;100889.19;;;27.49;39.88
38227;BME280;24026;49.446;8.576;2023-07-09T06:54:12;100886.13;;;27.50;40.26
38227;BME280;24026;49.446;8.576;2023-07-09T06:56:35;100885.44;;;27.53;40.09
38227;BME280;24026;49.446;8.576;2023-07-09T06:58:55;100889.72;;;27.54;39.89
38227;BME280;24026;49.446;8.576;2023-07-09T07:01:16;100886.31;;;27.58;39.73
38227;BME280;24026;49.446;8.576;2023-07-09T07:03:37;100891.09;;;27.61;40.33
38227;BME280;24026;49.446;8.576;2023-07-09T07:05:57;100888.78;;;27.63;40.07
38227;BME280;24026;49.446;8.576;2023-07-09T07:08:20;100885.72;;;27.64;39.92
38227;BME280;24026;49.446;8.576;2023-07-09T07:10:41;100885.38;;;27.66;39.57
38227;BME280;24026;49.446;8.576;2023-07-09T07:13:02;100879.25;;;27.69;39.95
38227;BME280;24026;49.446;8.576;2023-07-09T07:15:22;100879.69;;;27.71;39.53
38227;BME280;24026;49.446;8.576;2023-07-09T07:17:43;100882.84;;;27.73;39.59
38227;BME280;24026;49.446;8.576;2023-07-09T07:20:04;100879.78;;;27.75;39.75
38227;BME280;24026;49.446;8.576;2023-07-09T07:22:25;100876.34;;;27.78;39.79
38227;BME280;24026;49.446;8.576;2023-07-09T07:24:46;100870.56;;;27.79;39.57
38227;BME280;24026;49.446;8.576;2023-07-09T07:27:07;100875.31;;;27.82;39.68
38227;BME280;24026;49.446;8.576;2023-07-09T07:29:28;100863.28;;;27.83;39.32
38227;BME280;24026;49.446;8.576;2023-07-09T07:31:48;100863.72;;;27.85;39.79
38227;BME280;24026;49.446;8.576;2023-07-09T07:34:09;100853.56;;;27.86;39.74
38227;BME280;24026;49.446;8.576;2023-07-09T07:36:29;100859.94;;;27.90;39.65
38227;BME280;24026;49.446;8.576;2023-07-09T07:38:49;100857.66;;;27.92;39.33
38227;BME280;24026;49.446;8.576;2023-07-09T07:41:10;100855.38;;;27.94;39.07
38227;BME280;24026;49.446;8.576;2023-07-09T07:43:31;100860.16;;;27.97;39.33
38227;BME280;24026;49.446;8.576;2023-07-09T07:45:51;100857.88;;;27.99;39.26
38227;BME280;24026;49.446;8.576;2023-07-09T07:48:12;100850.94;;;28.02;39.16
38227;BME280;24026;49.446;8.576;2023-07-09T07:50:32;100848.63;;;28.04;38.92
38227;BME280;24026;49.446;8.576;2023-07-09T07:52:52;100849.06;;;28.06;38.87
38227;BME280;24026;49.446;8.576;2023-07-09T07:55:13;100854.63;;;28.09;38.77
38227;BME280;24026;49.446;8.576;2023-07-09T07:57:34;100852.34;;;28.12;39.21
38227;BME280;24026;49.446;8.576;2023-07-09T07:59:55;100847.34;;;28.14;39.12
38227;BME280;24026;49.446;8.576;2023-07-09T08:02:15;100852.09;;;28.17;39.04
38227;BME280;24026;49.446;8.576;2023-07-09T08:04:35;100849.81;;;28.19;39.03
38227;BME280;24026;49.446;8.576;2023-07-09T08:06:56;100844.78;;;28.21;39.12
38227;BME280;24026;49.446;8.576;2023-07-09T08:09:17;100848.38;;;28.25;38.75
38227;BME280;24026;49.446;8.576;2023-07-09T08:11:37;100839.84;;;28.26;38.81
38227;BME280;24026;49.446;8.576;2023-07-09T08:13:58;100843.03;;;28.28;38.82
38227;BME280;24026;49.446;8.576;2023-07-09T08:16:18;100846.66;;;28.33;38.53
38227;BME280;24026;49.446;8.576;2023-07-09T08:18:39;100844.34;;;28.35;38.54
38227;BME280;24026;49.446;8.576;2023-07-09T08:21:00;100844.00;;;28.36;38.62
38227;BME280;24026;49.446;8.576;2023-07-09T08:23:20;100843.31;;;28.39;38.50
38227;BME280;24026;49.446;8.576;2023-07-09T08:25:41;100847.28;;;28.42;38.72
38227;BME280;24026;49.446;8.576;2023-07-09T08:28:01;100845.78;;;28.44;38.46
38227;BME280;24026;49.446;8.576;2023-07-09T08:30:22;100848.16;;;28.46;38.51
38227;BME280;24026;49.446;8.576;2023-07-09T08:32:42;100846.66;;;28.49;38.58
38227;BME280;24026;49.446;8.576;2023-07-09T08:35:03;100848.66;;;28.52;38.07
38227;BME280;24026;49.446;8.576;2023-07-09T08:37:23;100843.66;;;28.54;38.14
38227;BME280;24026;49.446;8.576;2023-07-09T08:39:43;100844.91;;;28.56;38.25
38227;BME280;24026;49.446;8.576;2023-07-09T08:42:09;100844.22;;;28.59;38.49
38227;BME280;24026;49.446;8.576;2023-07-09T08:50:00;100843.59;;;28.66;37.81
38227;BME280;24026;49.446;8.576;2023-07-09T08:52:31;100832.84;;;28.57;37.93
38227;BME280;24026;49.446;8.576;2023-07-09T08:54:55;100842.47;;;28.67;37.82
38227;BME280;24026;49.446;8.576;2023-07-09T08:57:29;100835.47;;;28.70;38.08
38227;BME280;24026;49.446;8.576;2023-07-09T08:59:59;100839.09;;;28.74;37.64
38227;BME280;24026;49.446;8.576;2023-07-09T09:02:45;100837.16;;;28.74;38.16
38227;BME280;24026;49.446;8.576;2023-07-09T09:05:18;100839.63;;;28.79;37.88
38227;BME280;24026;49.446;8.576;2023-07-09T09:07:42;100840.50;;;28.83;37.89
38227;BME280;24026;49.446;8.576;2023-07-09T09:10:03;100836.25;;;28.86;37.43
38227;BME280;24026;49.446;8.576;2023-07-09T09:12:36;100835.13;;;28.87;37.57
38227;BME280;24026;49.446;8.576;2023-07-09T09:15:00;100835.63;;;28.93;37.81
38227;BME280;24026;49.446;8.576;2023-07-09T09:17:23;100835.28;;;28.94;37.81
38227;BME280;24026;49.446;8.576;2023-07-09T09:20:07;100834.13;;;28.95;37.73
38227;BME280;24026;49.446;8.576;2023-07-09T09:22:54;100836.50;;;28.97;37.41
38227;BME280;24026;49.446;8.576;2023-07-09T09:25:24;100829.94;;;29.01;37.54
38227;BME280;24026;49.446;8.576;2023-07-09T09:27:47;100830.84;;;29.06;37.46
38227;BME280;24026;49.446;8.576;2023-07-09T09:30:14;100834.00;;;29.08;37.42
38227;BME280;24026;49.446;8.576;2023-07-09T09:32:44;100830.56;;;29.11;37.20
38227;BME280;24026;49.446;8.576;2023-07-09T09:35:17;100829.41;;;29.12;37.01
38227;BME280;24026;49.446;8.576;2023-07-09T09:37:39;100830.28;;;29.16;37.39
38227;BME280;24026;49.446;8.576;2023-07-09T09:39:59;100828.00;;;29.18;37.10
38227;BME280;24026;49.446;8.576;2023-07-09T09:42:20;100835.50;;;29.21;37.23
38227;BME280;24026;49.446;8.576;2023-07-09T09:44:44;100846.53;;;29.25;36.70
38227;BME280;24026;49.446;8.576;2023-07-09T09:47:05;100843.44;;;29.26;37.18
38227;BME280;24026;49.446;8.576;2023-07-09T09:49:25;100845.44;;;29.29;36.94
38227;BME280;24026;49.446;8.576;2023-07-09T09:51:46;100837.66;;;29.31;36.78
38227;BME280;24026;49.446;8.576;2023-07-09T09:54:26;100842.44;;;29.34;37.01
38227;BME280;24026;49.446;8.576;2023-07-09T09:56:52;100831.13;;;29.36;36.67
38227;BME280;24026;49.446;8.576;2023-07-09T09:59:18;100827.69;;;29.39;36.97
38227;BME280;24026;49.446;8.576;2023-07-09T10:01:39;100825.38;;;29.41;36.72
38227;BME280;24026;49.446;8.576;2023-07-09T10:04:01;100817.22;;;29.45;36.56
38227;BME280;24026;49.446;8.576;2023-07-09T10:06:42;100815.66;;;29.44;36.51
38227;BME280;24026;49.446;8.576;2023-07-09T10:09:15;100813.78;;;29.48;36.54
38227;BME280;24026;49.446;8.576;2023-07-09T10:14:54;100806.81;;;29.50;36.54
38227;BME280;24026;49.446;8.576;2023-07-09T10:20:24;100802.97;;;29.55;36.55
38227;BME280;24026;49.446;8.576;2023-07-09T10:25:38;100787.47;;;29.63;36.64
38227;BME280;24026;49.446;8.576;2023-07-09T10:33:27;100793.88;;;29.70;36.31
38227;BME280;24026;49.446;8.576;2023-07-09T10:36:06;100783.00;;;29.74;36.04
38227;BME280;24026;49.446;8.576;2023-07-09T10:40:57;100778.81;;;29.80;36.54
38227;BME280;24026;49.446;8.576;2023-07-09T10:43:27;100782.44;;;29.84;36.14
38227;BME280;24026;49.446;8.576;2023-07-09T10:45:56;100772.81;;;29.74;36.30
38227;BME280;24026;49.446;8.576;2023-07-09T10:48:33;100778.47;;;29.82;36.36
38227;BME280;24026;49.446;8.576;2023-07-09T10:50:56;100777.00;;;29.88;36.17
38227;BME280;24026;49.446;8.576;2023-07-09T10:55:59;100771.66;;;29.95;36.13
38227;BME280;24026;49.446;8.576;2023-07-09T10:58:35;100766.22;;;29.99;36.22
38227;BME280;24026;49.446;8.576;2023-07-09T11:00:57;100759.25;;;30.01;36.08
38227;BME280;24026;49.446;8.576;2023-07-09T11:03:22;100758.53;;;30.04;35.74
38227;BME280;24026;49.446;8.576;2023-07-09T11:05:44;100753.47;;;30.06;35.92
38227;BME280;24026;49.446;8.576;2023-07-09T11:08:06;100745.66;;;30.08;35.97
38227;BME280;24026;49.446;8.576;2023-07-09T11:10:31;100747.66;;;30.11;36.01
38227;BME280;24026;49.446;8.576;2023-07-09T11:13:01;100742.59;;;30.14;35.96
38227;BME280;24026;49.446;8.576;2023-07-09T11:15:27;100744.63;;;30.17;35.88
38227;BME280;24026;49.446;8.576;2023-07-09T11:17:50;100738.00;;;30.18;35.55
38227;BME280;24026;49.446;8.576;2023-07-09T11:20:23;100743.88;;;30.20;35.52
38227;BME280;24026;49.446;8.576;2023-07-09T11:22:54;100743.16;;;30.23;35.50
38227;BME280;24026;49.446;8.576;2023-07-09T11:25:30;100742.00;;;30.24;35.30
38227;BME280;24026;49.446;8.576;2023-07-09T11:27:54;100739.31;;;30.27;35.24
38227;BME280;24026;49.446;8.576;2023-07-09T11:30:26;100735.84;;;30.30;35.49
38227;BME280;24026;49.446;8.576;2023-07-09T11:32:52;100732.72;;;30.32;35.40
38227;BME280;24026;49.446;8.576;2023-07-09T11:35:21;100735.09;;;30.34;35.08
38227;BME280;24026;49.446;8.576;2023-07-09T11:37:45;100729.72;;;30.37;35.18
38227;BME280;24026;49.446;8.576;2023-07-09T11:40:10;100730.13;;;30.39;34.98
38227;BME280;24026;49.446;8.576;2023-07-09T11:42:33;100732.50;;;30.41;35.22
38227;BME280;24026;49.446;8.576;2023-07-09T11:45:15;100724.28;;;30.41;35.37
38227;BME280;24026;49.446;8.576;2023-07-09T11:47:46;100729.03;;;30.44;35.13
38227;BME280;24026;49.446;8.576;2023-07-09T11:50:37;100720.81;;;30.44;34.80
38227;BME280;24026;49.446;8.576;2023-07-09T11:53:04;100728.28;;;30.47;34.82
38227;BME280;24026;49.446;8.576;2023-07-09T11:55:33;100725.63;;;30.51;34.75
38227;BME280;24026;49.446;8.576;2023-07-09T11:58:03;100720.53;;;30.53;34.78
38227;BME280;24026;49.446;8.576;2023-07-09T12:00:26;100723.34;;;30.56;34.88
38227;BME280;24026;49.446;8.576;2023-07-09T12:02:49;100717.88;;;30.60;34.40
38227;BME280;24026;49.446;8.576;2023-07-09T12:05:10;100717.53;;;30.61;34.82
38227;BME280;24026;49.446;8.576;2023-07-09T12:07:32;100714.41;;;30.63;34.53
38227;BME280;24026;49.446;8.576;2023-07-09T12:09:53;100710.94;;;30.66;34.70
38227;BME280;24026;49.446;8.576;2023-07-09T12:12:21;100712.50;;;30.67;34.44
38227;BME280;24026;49.446;8.576;2023-07-09T12:14:43;100698.41;;;30.69;34.38
38227;BME280;24026;49.446;8.576;2023-07-09T12:17:08;100713.34;;;30.71;34.48
38227;BME280;24026;49.446;8.576;2023-07-09T12:19:30;100700.06;;;30.73;34.21
38227;BME280;24026;49.446;8.576;2023-07-09T12:21:57;100699.69;;;30.75;34.12
38227;BME280;24026;49.446;8.576;2023-07-09T12:24:19;100692.69;;;30.77;34.17
38227;BME280;24026;49.446;8.576;2023-07-09T12:26:40;100691.50;;;30.78;34.10
38227;BME280;24026;49.446;8.576;2023-07-09T12:29:02;100687.22;;;30.81;34.04
38227;BME280;24026;49.446;8.576;2023-07-09T12:31:28;100673.56;;;30.84;34.03
38227;BME280;24026;49.446;8.576;2023-07-09T12:33:50;100671.22;;;30.87;33.86
38227;BME280;24026;49.446;8.576;2023-07-09T12:36:12;100661.84;;;30.88;33.69
38227;BME280;24026;49.446;8.576;2023-07-09T12:38:41;100678.34;;;30.91;33.89
38227;BME280;24026;49.446;8.576;2023-07-09T12:41:02;100664.25;;;30.93;33.70
38227;BME280;24026;49.446;8.576;2023-07-09T12:43:27;100657.25;;;30.95;33.84
38227;BME280;24026;49.446;8.576;2023-07-09T12:45:48;100654.13;;;30.97;33.46
38227;BME280;24026;49.446;8.576;2023-07-09T12:48:10;100647.13;;;30.99;33.33
38227;BME280;24026;49.446;8.576;2023-07-09T12:50:35;100650.28;;;31.01;33.60
38227;BME280;24026;49.446;8.576;2023-07-09T12:52:59;100638.13;;;31.02;33.52
38227;BME280;24026;49.446;8.576;2023-07-09T12:55:28;100641.66;;;31.03;33.39